Time;durP1;ratioP1;P1;durP2;ratioP2;P2;SDS_P1;SDS_P2;PMS_P1;PMS_P2;Temp;Humidity;BMP_temperature;BMP_pressure;BME280_temperature;BME280_humidity;BME280_pressure;Samples;Min_cycle;Max_cycle;Signal;HPM_P1;HPM_P2
2022/08/13 16:18:29;;;;;;;3.50;3.10;;;;;;;;;;5156941;27;21030;-63
2022/08/13 16:20:56;;;;;;;3.30;2.60;;;;;;;;;;5144111;27;20459;-64
2022/08/13 16:23:22;;;;;;;2.40;1.90;;;;;;;;;;5123159;28;20449;-65
2022/08/13 16:25:49;;;;;;;2.60;2.40;;;;;;;;;;5122552;28;20515;-66
2022/08/13 16:28:15;;;;;;;4.63;2.90;;;;;;;;;;5125655;28;20529;-64
2022/08/13 16:30:42;;;;;;;6.83;2.93;;;;;;;;;;5125332;27;20956;-65
2022/08/13 16:33:09;;;;;;;5.30;2.30;;;;;;;;;;5122871;28;20503;-63
2022/08/13 16:35:37;;;;;;;3.10;2.40;;;;;;;;;;5121424;28;20995;-67
2022/08/13 16:38:05;;;;;;;4.60;2.60;;;;;;;;;;5120423;27;20584;-65
2022/08/13 16:40:33;;;;;;;6.53;2.80;;;;;;;;;;5123133;28;20429;-67
2022/08/13 16:43:00;;;;;;;4.63;2.70;;;;;;;;;;5106701;28;20459;-66
2022/08/13 16:45:27;;;;;;;2.50;2.30;;;;;;;;;;5106711;28;20782;-67
2022/08/13 16:47:53;;;;;;;3.13;2.70;;;;;;;;;;5106458;28;20440;-66
2022/08/13 16:50:20;;;;;;;2.87;2.67;;;;;;;;;;5106741;28;20807;-66
2022/08/13 16:52:50;;;;;;;2.80;2.60;;;;;;;;;;5106867;28;20464;-66
2022/08/13 16:55:16;;;;;;;3.10;2.30;;;;;;;;;;5088319;28;20758;-65
2022/08/13 16:57:44;;;;;;;2.57;2.37;;;;;;;;;;5048127;28;20490;-66
2022/08/13 17:00:13;;;;;;;2.90;2.60;;;;;;;;;;5048446;28;20450;-66
2022/08/13 17:10:48;;;;;;;3.03;2.83;;;;;;;;;;5048173;28;20450;-66
2022/08/13 17:13:15;;;;;;;5.50;3.40;;;;;;;;;;5048702;28;20456;-67
2022/08/13 17:15:41;;;;;;;3.37;3.03;;;;;;;;;;5048424;28;20816;-67
2022/08/13 17:18:07;;;;;;;3.17;2.50;;;;;;;;;;5030281;28;20482;-67
2022/08/13 17:20:34;;;;;;;2.60;2.40;;;;;;;;;;5048013;28;20474;-67
2022/08/13 17:23:02;;;;;;;3.10;2.60;;;;;;;;;;5047765;28;20450;-66
2022/08/13 17:25:30;;;;;;;3.30;2.83;;;;;;;;;;5048161;28;20810;-67
2022/08/13 17:27:57;;;;;;;2.37;2.20;;;;;;;;;;5043436;28;20441;-68
2022/08/13 17:30:25;;;;;;;2.90;2.53;;;;;;;;;;5036239;28;20439;-69
2022/08/13 17:32:52;;;;;;;5.70;2.70;;;;;;;;;;5041726;28;20489;-72
2022/08/13 17:35:18;;;;;;;4.10;3.63;;;;;;;;;;5052157;28;20465;-64
2022/08/13 17:37:46;;;;;;;4.27;3.23;;;;;;;;;;5053742;28;20992;-64
2022/08/13 17:40:13;;;;;;;4.33;3.30;;;;;;;;;;5054095;28;20542;-64
2022/08/13 17:42:41;;;;;;;3.70;2.80;;;;;;;;;;5055035;28;20466;-64
2022/08/13 17:45:07;;;;;;;3.43;3.13;;;;;;;;;;5050795;28;20523;-63
2022/08/13 17:47:34;;;;;;;5.97;4.33;;;;;;;;;;5052793;28;20982;-62
2022/08/13 17:50:00;;;;;;;7.10;5.73;;;;;;;;;;5053543;28;20458;-65
2022/08/13 17:52:27;;;;;;;4.70;4.30;;;;;;;;;;5052935;28;20514;-62
2022/08/13 17:54:54;;;;;;;4.87;4.37;;;;;;;;;;5053135;28;20464;-64
2022/08/13 17:57:20;;;;;;;6.97;3.90;;;;;;;;;;5049412;28;21059;-62
2022/08/13 17:59:48;;;;;;;4.47;4.07;;;;;;;;;;5048116;28;20886;-62
2022/08/13 18:02:15;;;;;;;6.10;4.40;;;;;;;;;;5052318;28;20550;-62
2022/08/13 18:04:41;;;;;;;6.57;3.70;;;;;;;;;;5051820;28;20551;-63
2022/08/13 18:07:08;;;;;;;7.97;4.60;;;;;;;;;;5053917;28;20440;-60
2022/08/13 18:09:34;;;;;;;7.27;4.03;;;;;;;;;;5048438;28;20821;-64
2022/08/13 18:12:00;;;;;;;5.47;3.93;;;;;;;;;;5060333;28;21009;-64
2022/08/13 18:14:27;;;;;;;13.60;4.87;;;;;;;;;;5049605;28;20447;-64
2022/08/13 18:16:54;;;;;;;3.70;3.40;;;;;;;;;;5052727;28;20503;-64
2022/08/13 18:19:23;;;;;;;3.30;2.90;;;;;;;;;;5050550;28;20465;-64
2022/08/13 18:21:49;;;;;;;3.57;3.27;;;;;;;;;;5049277;28;20554;-64
2022/08/13 18:24:15;;;;;;;9.43;8.60;;;;;;;;;;5050813;28;20962;-64
2022/08/13 18:26:42;;;;;;;48.40;43.67;;;;;;;;;;5052965;28;20440;-64
2022/08/13 18:29:09;;;;;;;47.17;42.67;;;;;;;;;;5052107;28;20448;-63
2022/08/13 18:31:35;;;;;;;14.30;12.87;;;;;;;;;;5048071;28;20474;-65
2022/08/13 18:34:03;;;;;;;11.43;9.20;;;;;;;;;;5048416;28;20551;-65
2022/08/13 18:36:30;;;;;;;7.37;6.20;;;;;;;;;;5052420;28;20454;-62
2022/08/13 18:38:56;;;;;;;5.70;5.20;;;;;;;;;;5052652;28;20501;-62
2022/08/13 18:41:23;;;;;;;6.57;5.40;;;;;;;;;;5049374;28;20476;-63
2022/08/13 18:43:49;;;;;;;10.60;9.60;;;;;;;;;;5049398;28;20450;-65
2022/08/13 18:46:15;;;;;;;7.63;5.37;;;;;;;;;;5054484;28;21017;-64
2022/08/13 18:48:42;;;;;;;10.83;5.87;;;;;;;;;;5053612;28;20438;-62
2022/08/13 18:51:10;;;;;;;6.07;5.47;;;;;;;;;;5054272;28;20544;-68
2022/08/13 18:53:36;;;;;;;12.10;6.70;;;;;;;;;;5054620;28;20443;-66
2022/08/13 18:56:04;;;;;;;7.30;6.40;;;;;;;;;;5053638;28;20526;-65
2022/08/13 18:58:31;;;;;;;5.63;5.07;;;;;;;;;;5053805;28;20483;-64
2022/08/13 19:00:58;;;;;;;9.17;5.27;;;;;;;;;;5053616;28;20552;-61
2022/08/13 19:03:24;;;;;;;5.83;5.23;;;;;;;;;;5051728;28;20558;-62
2022/08/13 19:05:52;;;;;;;4.83;3.77;;;;;;;;;;5053533;28;20795;-61
2022/08/13 19:08:21;;;;;;;9.50;6.63;;;;;;;;;;5053009;28;20805;-60
2022/08/13 19:10:48;;;;;;;7.47;5.27;;;;;;;;;;5052054;28;20510;-59
2022/08/13 19:13:15;;;;;;;6.23;4.87;;;;;;;;;;5050996;28;20470;-60
2022/08/13 19:15:45;;;;;;;4.27;3.87;;;;;;;;;;5050181;28;20452;-59
2022/08/13 19:18:11;;;;;;;7.60;3.90;;;;;;;;;;5052264;28;21003;-60
2022/08/13 19:20:38;;;;;;;5.67;3.90;;;;;;;;;;5052242;28;20530;-59
2022/08/13 19:23:06;;;;;;;5.73;4.47;;;;;;;;;;5052687;28;20443;-61
2022/08/13 19:25:34;;;;;;;7.07;4.87;;;;;;;;;;5051905;28;20543;-60
2022/08/13 19:28:02;;;;;;;11.33;6.40;;;;;;;;;;5052447;28;20494;-61
2022/08/13 19:30:29;;;;;;;7.80;6.30;;;;;;;;;;5050180;28;20459;-59
2022/08/13 19:32:55;;;;;;;6.97;6.27;;;;;;;;;;5052623;28;20443;-60
2022/08/13 19:35:23;;;;;;;7.87;6.37;;;;;;;;;;5052884;28;20889;-61
2022/08/13 19:37:50;;;;;;;7.03;5.80;;;;;;;;;;5051870;28;20921;-61
2022/08/13 19:40:18;;;;;;;9.27;5.53;;;;;;;;;;5049654;28;20488;-60
2022/08/13 19:42:46;;;;;;;7.30;5.60;;;;;;;;;;5050438;28;20486;-61
2022/08/13 19:45:13;;;;;;;5.50;5.10;;;;;;;;;;5051130;28;20470;-60
2022/08/13 19:47:40;;;;;;;5.53;5.07;;;;;;;;;;5050677;28;20884;-60
2022/08/13 19:50:08;;;;;;;6.13;5.33;;;;;;;;;;5052106;28;20439;-60
2022/08/13 19:52:35;;;;;;;7.27;5.43;;;;;;;;;;5051021;28;20566;-62
2022/08/13 19:55:01;;;;;;;6.50;5.57;;;;;;;;;;5051305;28;20491;-63
2022/08/13 19:57:28;;;;;;;131.83;90.77;;;;;;;;;;5050576;28;20487;-62
2022/08/13 19:59:59;;;;;;;32.47;24.80;;;;;;;;;;5050430;28;20451;-61
2022/08/13 20:02:26;;;;;;;7.90;6.73;;;;;;;;;;5051543;28;20541;-63
2022/08/13 20:04:53;;;;;;;5.83;5.33;;;;;;;;;;5051500;28;20530;-62
2022/08/13 20:07:19;;;;;;;7.40;6.70;;;;;;;;;;5050364;28;20542;-65
2022/08/13 20:09:45;;;;;;;6.50;5.00;;;;;;;;;;5049428;28;20491;-64
2022/08/13 20:12:12;;;;;;;13.47;10.27;;;;;;;;;;5051082;28;20467;-65
2022/08/13 20:14:39;;;;;;;5.00;4.60;;;;;;;;;;5049734;28;20477;-64
2022/08/13 20:17:07;;;;;;;5.67;5.03;;;;;;;;;;5049557;28;20520;-64
2022/08/13 20:19:34;;;;;;;6.17;5.57;;;;;;;;;;5050618;28;20450;-64
2022/08/13 20:22:01;;;;;;;5.07;4.57;;;;;;;;;;5051384;28;20467;-62
2022/08/13 20:24:28;;;;;;;7.50;6.90;;;;;;;;;;5050000;28;20542;-62
2022/08/13 20:26:59;;;;;;;8.87;6.10;;;;;;;;;;5052216;28;20523;-60
2022/08/13 20:29:26;;;;;;;5.93;5.23;;;;;;;;;;5051124;28;20470;-79
2022/08/13 20:31:52;;;;;;;8.00;5.00;;;;;;;;;;5057356;28;21333;-79
2022/08/13 20:34:20;;;;;;;6.80;6.20;;;;;;;;;;5057068;28;20529;-79
2022/08/13 20:36:49;;;;;;;5.87;5.37;;;;;;;;;;5062631;28;20551;-80
2022/08/13 20:39:15;;;;;;;9.20;5.53;;;;;;;;;;5061920;28;20484;-77
2022/08/13 20:41:42;;;;;;;6.27;5.17;;;;;;;;;;5058226;28;20911;-78
2022/08/13 20:44:25;;;;;;;6.07;5.47;;;;;;;;;;5057680;28;20469;-79
2022/08/13 20:46:52;;;;;;;7.83;5.27;;;;;;;;;;5053156;28;20464;-78
2022/08/13 20:49:20;;;;;;;5.43;5.03;;;;;;;;;;5055278;28;20534;-80
2022/08/13 20:51:46;;;;;;;7.20;5.50;;;;;;;;;;5053241;28;20479;-79
2022/08/13 20:54:12;;;;;;;5.87;5.40;;;;;;;;;;5057575;28;20881;-79
2022/08/13 20:56:39;;;;;;;5.50;5.03;;;;;;;;;;5055076;28;21035;-79
2022/08/13 20:59:05;;;;;;;6.53;5.50;;;;;;;;;;5055112;28;20479;-80
2022/08/13 21:01:32;;;;;;;7.53;6.23;;;;;;;;;;5055484;28;20479;-80
2022/08/13 21:03:58;;;;;;;5.90;5.40;;;;;;;;;;5058075;28;20550;-78
2022/08/13 21:06:26;;;;;;;7.13;5.10;;;;;;;;;;5060384;28;20448;-79
2022/08/13 21:08:52;;;;;;;6.57;5.30;;;;;;;;;;5056684;28;20828;-79
2022/08/13 21:11:19;;;;;;;7.57;5.37;;;;;;;;;;5061145;28;20469;-80
2022/08/13 21:13:45;;;;;;;9.43;6.00;;;;;;;;;;5066110;28;20443;-79
2022/08/13 21:16:12;;;;;;;6.27;5.77;;;;;;;;;;5066686;28;20462;-79
2022/08/13 21:18:39;;;;;;;6.20;5.60;;;;;;;;;;5072115;28;21010;-79
2022/08/13 21:21:06;;;;;;;5.77;5.27;;;;;;;;;;5076408;28;20458;-79
2022/08/13 21:23:35;;;;;;;10.23;9.33;;;;;;;;;;5076801;28;20436;-79
2022/08/13 21:26:01;;;;;;;19.23;17.33;;;;;;;;;;5069457;28;20452;-77
2022/08/13 21:28:28;;;;;;;7.97;6.40;;;;;;;;;;5066082;28;20487;-78
2022/08/13 21:30:54;;;;;;;6.80;6.20;;;;;;;;;;5065086;28;20486;-78
2022/08/13 21:33:21;;;;;;;8.47;7.77;;;;;;;;;;5064672;28;20535;-78
2022/08/13 21:35:47;;;;;;;7.50;6.80;;;;;;;;;;5064697;28;20439;-78
2022/08/13 21:38:14;;;;;;;6.70;6.20;;;;;;;;;;5063257;28;20480;-77
2022/08/13 21:40:42;;;;;;;7.03;6.47;;;;;;;;;;5061933;28;20460;-77
2022/08/13 21:43:09;;;;;;;10.50;6.77;;;;;;;;;;5063589;28;20456;-79
2022/08/13 21:45:35;;;;;;;7.33;5.70;;;;;;;;;;5072519;28;20527;-77
2022/08/13 21:48:02;;;;;;;6.57;6.07;;;;;;;;;;5061041;28;20452;-78
2022/08/13 21:50:29;;;;;;;6.97;6.40;;;;;;;;;;5058180;28;20466;-77
2022/08/13 21:52:56;;;;;;;8.00;7.20;;;;;;;;;;5061473;28;20519;-78
2022/08/13 21:55:23;;;;;;;6.90;6.20;;;;;;;;;;5056804;28;20451;-77
2022/08/13 21:57:51;;;;;;;7.03;6.43;;;;;;;;;;5058645;28;20486;-79
2022/08/13 22:00:18;;;;;;;9.27;6.70;;;;;;;;;;5057757;28;20460;-78
2022/08/13 22:02:45;;;;;;;8.10;7.40;;;;;;;;;;5085718;22;20560;-69
2022/08/13 22:05:12;;;;;;;8.90;7.17;;;;;;;;;;5062909;28;20520;-68
2022/08/13 22:07:39;;;;;;;8.63;6.93;;;;;;;;;;5069939;28;20435;-70
2022/08/13 22:10:06;;;;;;;6.40;5.90;;;;;;;;;;5072719;28;20462;-68
2022/08/13 22:12:33;;;;;;;6.67;6.00;;;;;;;;;;5069436;28;21213;-69
2022/08/13 22:15:00;;;;;;;7.53;6.90;;;;;;;;;;5066237;28;20451;-71
2022/08/13 22:17:28;;;;;;;10.40;8.50;;;;;;;;;;5062743;28;21101;-69
2022/08/13 22:19:54;;;;;;;9.27;8.37;;;;;;;;;;5068793;28;20478;-68
2022/08/13 22:22:21;;;;;;;7.40;6.80;;;;;;;;;;5072048;28;20475;-68
2022/08/13 22:24:47;;;;;;;7.20;6.50;;;;;;;;;;5065009;28;20447;-68
2022/08/13 22:27:14;;;;;;;7.20;6.57;;;;;;;;;;5061969;28;20435;-69
2022/08/13 22:32:25;;;;;;;7.20;6.50;;;;;;;;;;5063576;28;20967;-70
2022/08/13 22:34:54;;;;;;;8.50;7.47;;;;;;;;;;5060712;28;20439;-69
2022/08/13 22:37:21;;;;;;;8.43;7.53;;;;;;;;;;5068398;28;20463;-70
2022/08/13 22:39:47;;;;;;;14.63;7.60;;;;;;;;;;5064841;28;20479;-70
2022/08/13 22:42:13;;;;;;;6.90;6.30;;;;;;;;;;5064917;28;20458;-69
2022/08/13 22:44:40;;;;;;;7.53;6.73;;;;;;;;;;5060387;28;20440;-69
2022/08/13 22:47:06;;;;;;;8.47;6.20;;;;;;;;;;5061404;28;20824;-69
2022/08/13 22:49:34;;;;;;;7.30;6.70;;;;;;;;;;5064154;28;20461;-69
2022/08/13 22:52:00;;;;;;;8.30;6.47;;;;;;;;;;5065950;28;20835;-69
2022/08/13 22:54:27;;;;;;;7.50;6.80;;;;;;;;;;5072361;28;20447;-69
2022/08/13 22:56:53;;;;;;;7.60;6.60;;;;;;;;;;5065203;28;20550;-70
2022/08/13 22:59:20;;;;;;;16.23;11.83;;;;;;;;;;5062116;28;20476;-70
2022/08/13 23:01:46;;;;;;;12.43;11.33;;;;;;;;;;5064156;28;20479;-69
2022/08/13 23:04:13;;;;;;;16.70;15.10;;;;;;;;;;5068912;28;20481;-70
2022/08/13 23:06:41;;;;;;;9.87;6.97;;;;;;;;;;5071667;28;20473;-70
2022/08/13 23:09:08;;;;;;;7.97;7.17;;;;;;;;;;5056759;28;21061;-67
2022/08/13 23:11:36;;;;;;;7.17;6.47;;;;;;;;;;5062858;28;21044;-69
2022/08/13 23:14:03;;;;;;;6.50;6.00;;;;;;;;;;5065543;28;20447;-69
2022/08/13 23:16:29;;;;;;;7.27;6.50;;;;;;;;;;5072274;28;20448;-69
2022/08/13 23:18:56;;;;;;;6.80;6.20;;;;;;;;;;5066990;28;20476;-69
2022/08/13 23:21:23;;;;;;;7.93;7.13;;;;;;;;;;5073704;28;20532;-69
2022/08/13 23:23:51;;;;;;;6.80;6.20;;;;;;;;;;5068867;28;20518;-69
2022/08/13 23:26:18;;;;;;;7.87;7.17;;;;;;;;;;5066399;28;20465;-69
2022/08/13 23:28:44;;;;;;;6.97;6.37;;;;;;;;;;5063004;28;20432;-69
2022/08/13 23:31:11;;;;;;;6.90;6.20;;;;;;;;;;5059939;28;20467;-69
2022/08/13 23:33:37;;;;;;;7.17;6.33;;;;;;;;;;5061934;28;20455;-69
2022/08/13 23:36:04;;;;;;;7.70;7.00;;;;;;;;;;5064280;28;20819;-69
2022/08/13 23:38:31;;;;;;;8.07;7.27;;;;;;;;;;5061714;28;20849;-68
2022/08/13 23:40:59;;;;;;;12.00;10.90;;;;;;;;;;5058387;28;20455;-69
2022/08/13 23:43:25;;;;;;;10.50;9.60;;;;;;;;;;5061475;28;20450;-69
2022/08/13 23:45:52;;;;;;;9.13;6.97;;;;;;;;;;5067842;28;20453;-69
2022/08/13 23:48:18;;;;;;;8.80;7.77;;;;;;;;;;5060457;28;20460;-69
2022/08/13 23:50:46;;;;;;;10.40;9.40;;;;;;;;;;5059615;28;20440;-69
2022/08/13 23:53:18;;;;;;;7.93;7.20;;;;;;;;;;5072038;28;20854;-69
2022/08/13 23:55:45;;;;;;;7.40;6.73;;;;;;;;;;5060971;28;20432;-69
2022/08/13 23:58:12;;;;;;;7.07;6.37;;;;;;;;;;5060289;28;20473;-69
